Timeline UpdatesTrip UpdatesNews PostsPvt PostsTravel TipsAdmin PostsConv PostsFollowed PostsChat RequestsBlog PostsPNR Posts

Disclaimer
Search
 
 
Thu Apr 17, 2014 06:23:18 ISTHomeTrainsΣChainsAtlasPNRForumGalleryNewsFAQTripsMembersLoginFeedback
No Recent News for this Train
Other Trains in the News **new
Latest...
⇐ Return Journey: Train# 37917

37918/Katwa-Howrah Local

Sep 18 2013 (11:14PM)
Change Departure Station:
Change Arrival Station:
Post a Train Travel TipPost a Train Travel Tip **new
Post a Comment/Question/Picture/VideoPost a Comment/Question/Picture/Video
Pantry/Catering
✕ NO Pantry Car
✕ NO Catering
RSA - Rake Sharing
Rake/Coach Composition
Loco
News    PNR    Forum    Time-Table    Availability    Fare Chart    Map    Arr/Dep History    Trips    Gallery    ΣChains    X/O    Timeline    
Travel Time: 0h 17m    5 halts    Distance: 14 km    Avg Speed: 49 km/hr
Type: EMU - Kolkata
Zone: ER/Eastern
Departs @ 09:36 (Avg 48m late)
Platform# ???
SMTWTFS
Seoraphuli Junction/SHE 
Arrives @ 09:53 (Avg 1h 9m late)
Platform# ???
SMTWTFS
Bally/BLY 

5 halts. 5 intermediate Stations between Seoraphuli Junction and Bally

Show ALL intermediate Stations  Show Old Time-Table

#CodeStation NameX/OArrivesAvgDepartsAvgHaltPFDay#KmSpeedElevZoneAddress
1KWAEKatwa Junction (5)  -06:50+39--1-122.35821mERDist - Bardhaman, West Bengal
2DHAEDainhat (4)  06:57+4906:58+511m--1-115.510219mERDaihaat Rd, West Bengal
3SHBASahebtala  07:00+5507:01+551m--1-112.14218mERSahebtala, West Bengal
4AGAEAgradwip (2)  07:05+5507:06+551m--1-109.39818mERDist - Bardhaman, West Bengal
5PTAEPatuli (2)  07:09+5707:10+571m--1-104.47518mERDist - bardhaman, West Bengal
6BQYBelerhat  07:14+5807:15+581m--1-99.48219mERJajneswarpur, West Bengal
7LKXLakshmipur (2)  07:17+5807:18+581m--1-96.79414mERDist - burdhaman, West Bengal
8MTFAMertala Phaleya  07:20+1:0007:21+1:001m--1-93.69216mERMertala Phaleya, West Bengal
9PSAEPurbasthali (2)  07:23+1:0007:24+1:001m--1-90.57019mERDist - Bardhaman, West Bengal
10BFZBhandartikuri  07:26+1:0107:27+1:011m--1-88.25421mERDist - Bardhaman, West Bengal
11NDAENabadwip Dham (3)  07:33+5407:35+532m--1-82.88315mERDist - Nadia, West Bengal
12KLNTKalinagar (1)  07:38+1:0107:39+1:011m11-78.7229mERDist - Nadia, West Bengal
13SMAESamudra Garh  07:49+5707:50+1:061m--1-74.94516mERDist - Bardhaman, West Bengal
14DTAEDhatrigram  07:59+1:0608:00+1:061m--1-68.29116mERDhatrigram, West Bengal
15BGRABaghnapara (2)  08:03+1:0708:04+1:081m--1-63.78216mERKalna-Memari Rd, West Bengal
16ABKAAmbika Kalna (4)  08:07+1:1008:08+1:101m--1-59.68512mERKalna, West Bengal
17GPAEGuptipara  08:13+1:1108:14+1:111m--1-52.56314mERGuptipara Railway Station, West Bengal
18BHLABehula  08:16+1:1108:17+1:111m--1-50.49816mERDist - Hooghly, West Bengal
19SOAESomra Bazar (2)  08:20+1:1108:21+1:111m--1-45.58613mERState Highway 6, West Bengal
20BGAEBalagarh  08:23+1:1608:24+1:161m--1-42.66613mERBalagarh, West Bengal
21JITJirat (3)  08:26+1:1608:27+1:161m--1-40.49517mERdist - hooghly, West Bengal
22KMAEKhamargachhi  08:31+1:1708:32+1:171m--1-34.15914mERKhamargachi, West Bengal
23DMLEDumurdaha  08:34+1:1708:35+1:171m--1-32.29815mERDumurdahadham, West Bengal
24KJUKuntighat  08:37+1:1808:38+1:181m--1-28.96717mERKuntighat Railway Station, West Bengal
25TBAETribeni  08:41+1:1808:42+1:181m--1-25.67416mERTribeni, West Bengal
26BSAEBansh Baria  08:45+1:2108:46+1:211m--1-21.91613mERBansberia, West Bengal
27BDCBandel Junction (7)  09:03+4709:14+4211m--1-17.45914mERdist - HOOGHLY, West Bengal
28HGYHooghly (3)  09:16+1:0609:17+1:061m--1-15.45414mERDist - Hooghly, West Bengal
29CNSChuchura (3)  09:19+1:0809:20+1:081m--1-13.69015mERDist - HOOGHLY - 712102, West Bengal
30CGRChandan Nagar (3)  09:22+1:0809:23+1:081m--1-10.614216mERDist -HOOGHLY - 712136, West Bengal
31MUUMankundu (3)  09:24+1:0909:25+1:091m--1-8.36713mERChandannagar, West Bengal
32BHRBhadreshwar (3)  09:27+1:0909:28+1:091m--1-6.15614mERBhadreswar, West Bengal
33BBAEBaidyabati (3)  09:32+1:0809:33+1:081m--1-2.36913mERBaidyabati, West Bengal
34SHE»Seoraphuli Junction (6)»  09:35+4809:36+481m--10.07613mERBaidyabati, West Bengal
35SRPSerampore (4)  09:38+1:1009:39+1:101m--12.56411mERdist - hooghly, West Bengal
36RISRishra (3)  09:42+1:0809:43+1:081m--15.84211mERRishra, West Bengal
37KOGKonnagar (3)  09:47+1:0809:48+1:081m--18.611510mERDist: Howrah, West Bengal
38HMZHind Motor (3)  09:49+1:0809:50+1:081m--110.51089mERHindmotor, West Bengal
39UPAUttarpara (3)  09:51+1:0809:52+1:081m--112.3749mERDist - Hooghly, West Bengal
40BLY•Bally (6)•  09:53+1:0909:54+1:091m--113.5618mERDist - Howrah, West Bengal
41BEQBelur (5)  09:56+1:0909:57+1:091m--115.6508mERHowrah, West Bengal
42LLHLiluah (5)  09:59+1:0910:00+1:091m--117.21410mERHowrah, West Bengal
43HWHKolkata Howrah Junction (23)  10:20+9---121.7-10mERHowrah 711101, West Bengal
Scroll to Top
Scroll to Bottom